Time;durP1;ratioP1;P1;durP2;ratioP2;P2;SDS_P1;SDS_P2;PMS_P1;PMS_P2;Temp;Humidity;BMP_temperature;BMP_pressure;BME280_temperature;BME280_humidity;BME280_pressure;Samples;Min_cycle;Max_cycle;Signal;HPM_P1;HPM_P2
2022/11/11 00:01:30;;;;;;;8.52;6.65;;;14.60;92.90;;;;;;5056523;28;20431;-85
2022/11/11 00:03:56;;;;;;;8.48;6.95;;;14.60;93.00;;;;;;5030949;28;20033;-85
2022/11/11 00:06:22;;;;;;;9.50;6.57;;;14.60;93.20;;;;;;5045864;28;20030;-85
2022/11/11 00:08:48;;;;;;;8.98;6.90;;;14.60;93.20;;;;;;5041040;28;20117;-85
2022/11/11 00:11:15;;;;;;;9.13;6.85;;;14.50;92.90;;;;;;5047866;28;20045;-85
2022/11/11 00:13:42;;;;;;;9.50;6.85;;;14.60;93.20;;;;;;5042451;28;20017;-83
2022/11/11 00:16:12;;;;;;;12.38;7.13;;;14.50;93.10;;;;;;5029990;28;20030;-83
2022/11/11 00:27:07;;;;;;;7.40;5.85;;;14.40;93.90;;;;;;5034964;28;20044;-86
2022/11/11 00:29:33;;;;;;;7.35;5.60;;;14.60;95.50;;;;;;5047077;28;20116;-86
2022/11/11 00:35:51;;;;;;;8.50;5.72;;;14.40;93.30;;;;;;5031608;28;20422;-85
2022/11/11 00:37:28;;;;;;;8.40;6.15;;;14.40;93.00;;;;;;5036094;28;20107;-85
2022/11/11 00:39:54;;;;;;;10.40;6.47;;;14.30;92.90;;;;;;5046478;28;20470;-85
2022/11/11 00:42:20;;;;;;;10.65;6.85;;;14.30;93.10;;;;;;5033960;28;20362;-85
2022/11/11 00:44:45;;;;;;;9.00;6.78;;;14.30;93.10;;;;;;5025812;28;20037;-84
2022/11/11 00:52:39;;;;;;;9.13;6.40;;;14.30;93.00;;;;;;5031344;28;20041;-84
2022/11/11 00:55:06;;;;;;;10.27;6.93;;;14.30;92.90;;;;;;5027449;28;20034;-85
2022/11/11 00:57:31;;;;;;;9.52;6.20;;;14.20;92.70;;;;;;5044372;28;20033;-87
2022/11/11 00:59:57;;;;;;;8.82;6.65;;;14.20;92.90;;;;;;5045357;28;20044;-87
2022/11/11 01:02:23;;;;;;;11.90;7.07;;;14.20;92.80;;;;;;5030177;28;20105;-84
2022/11/11 01:04:48;;;;;;;8.60;6.38;;;14.10;92.80;;;;;;5040964;28;20033;-84
2022/11/11 01:07:14;;;;;;;6.82;5.88;;;14.10;92.90;;;;;;5029722;28;20093;-83
2022/11/11 01:09:40;;;;;;;7.93;6.22;;;14.20;93.10;;;;;;5030597;28;20045;-83
2022/11/11 01:12:05;;;;;;;9.85;6.38;;;14.10;92.80;;;;;;5012268;28;20031;-81
2022/11/11 01:14:31;;;;;;;7.40;6.00;;;14.10;92.80;;;;;;5037916;28;20037;-84
2022/11/11 01:16:57;;;;;;;8.30;6.40;;;14.10;92.90;;;;;;5023933;28;20034;-82
2022/11/11 01:19:23;;;;;;;8.93;6.22;;;;;;;;;;5016726;28;20089;-83
2022/11/11 01:21:48;;;;;;;7.60;5.63;;;14.10;92.90;;;;;;5012201;28;20026;-83
2022/11/11 01:24:14;;;;;;;7.38;5.72;;;14.10;93.10;;;;;;5019120;28;20029;-83
2022/11/11 01:26:40;;;;;;;6.10;5.50;;;14.10;92.90;;;;;;5022485;28;20025;-83
2022/11/11 01:29:05;;;;;;;7.53;4.97;;;14.20;93.00;;;;;;5023674;28;20030;-83
2022/11/11 01:31:31;;;;;;;9.00;5.47;;;;;;;;;;5028832;28;20481;-83
2022/11/11 01:33:57;;;;;;;4.93;4.30;;;13.90;97.30;;;;;;5027563;28;20030;-83
2022/11/11 01:36:25;;;;;;;7.07;4.57;;;14.20;92.90;;;;;;5015041;28;20034;-83
2022/11/11 01:38:53;;;;;;;6.43;3.90;;;14.20;92.60;;;;;;5027701;28;20022;-83
2022/11/11 01:41:31;;;;;;;8.13;4.75;;;14.20;92.30;;;;;;5032040;28;20029;-84
2022/11/11 01:44:01;;;;;;;7.38;4.75;;;14.20;92.40;;;;;;5020886;28;20031;-85
2022/11/11 01:46:56;;;;;;;5.50;4.00;;;14.20;92.60;;;;;;5009759;28;20036;-85
2022/11/11 01:51:55;;;;;;;6.28;4.32;;;14.20;92.20;;;;;;5110697;27;20380;-85
2022/11/11 01:54:59;;;;;;;4.22;3.70;;;14.20;92.40;;;;;;5100093;28;20032;-85
2022/11/11 01:57:39;;;;;;;5.35;4.07;;;14.30;92.30;;;;;;5105574;28;20040;-82
2022/11/11 02:00:15;;;;;;;6.70;3.80;;;14.30;92.20;;;;;;5089697;28;20028;-83
2022/11/11 02:02:46;;;;;;;5.05;3.45;;;14.20;92.00;;;;;;5109526;28;20043;-83
2022/11/11 02:08:01;;;;;;;7.00;3.38;;;14.20;91.90;;;;;;5110757;28;20073;-83
2022/11/11 02:10:30;;;;;;;4.18;3.60;;;14.30;92.10;;;;;;5105992;28;20099;-87
2022/11/11 02:15:40;;;;;;;4.68;3.33;;;14.20;92.10;;;;;;5099475;28;20040;-88
2022/11/11 02:18:06;;;;;;;5.05;3.17;;;14.10;91.90;;;;;;5092058;28;20024;-88
2022/11/11 02:20:42;;;;;;;5.20;3.65;;;14.10;91.90;;;;;;5072031;28;20036;-88
2022/11/11 02:23:35;;;;;;;4.57;3.15;;;14.20;92.10;;;;;;5073817;28;21755;-87
2022/11/11 02:26:04;;;;;;;4.35;3.20;;;14.10;91.90;;;;;;5109809;28;20034;-83
2022/11/11 02:28:32;;;;;;;4.53;3.50;;;14.10;91.80;;;;;;5103206;28;20028;-83
2022/11/11 02:30:58;;;;;;;4.90;3.28;;;14.10;91.90;;;;;;5101609;28;20035;-82
2022/11/11 02:33:24;;;;;;;3.97;3.20;;;;;;;;;;5103047;28;20035;-83
2022/11/11 02:35:56;;;;;;;5.35;3.60;;;14.10;91.70;;;;;;5109203;28;20032;-83
2022/11/11 02:38:24;;;;;;;4.85;3.10;;;14.10;91.60;;;;;;5104384;28;20024;-84
2022/11/11 02:43:34;;;;;;;5.53;2.97;;;14.10;91.60;;;;;;5098074;28;20084;-83
2022/11/11 02:46:02;;;;;;;3.15;2.67;;;14.10;91.60;;;;;;5106789;28;20024;-83
2022/11/11 02:48:29;;;;;;;4.00;2.50;;;14.20;92.40;;;;;;5107699;28;20044;-84
2022/11/11 02:50:55;;;;;;;3.03;2.55;;;14.30;93.20;;;;;;5109513;28;20059;-84
2022/11/11 02:53:21;;;;;;;3.70;2.88;;;14.20;91.40;;;;;;5107502;28;20384;-84
2022/11/11 02:55:47;;;;;;;4.15;2.88;;;;;;;;;;5107303;28;20032;-84
2022/11/11 02:58:14;;;;;;;3.25;2.70;;;14.10;91.30;;;;;;5105773;28;20031;-84
2022/11/11 03:00:41;;;;;;;4.13;3.30;;;14.10;91.50;;;;;;5108345;28;20039;-86
2022/11/11 03:03:07;;;;;;;4.40;3.17;;;;;;;;;;5088388;28;20024;-85
2022/11/11 03:05:33;;;;;;;3.60;2.58;;;13.70;91.70;;;;;;5095686;28;20081;-84
2022/11/11 03:07:58;;;;;;;4.75;3.20;;;13.60;91.60;;;;;;5091880;28;20028;-84
2022/11/11 03:10:24;;;;;;;5.18;3.22;;;;;;;;;;5095762;28;20103;-84
2022/11/11 03:12:50;;;;;;;4.15;3.00;;;;;;;;;;5077422;28;20117;-84
2022/11/11 03:15:16;;;;;;;4.90;3.60;;;13.40;91.80;;;;;;5095456;28;20047;-83
2022/11/11 03:17:42;;;;;;;3.40;3.05;;;13.40;92.00;;;;;;5090619;28;20036;-80
2022/11/11 03:23:01;;;;;;;4.65;3.25;;;13.50;91.90;;;;;;5084455;28;20118;-80
2022/11/11 03:25:39;;;;;;;8.38;3.80;;;;;;;;;;5076902;28;20036;-80
2022/11/11 03:29:25;;;;;;;5.18;3.50;;;13.40;91.90;;;;;;5070874;28;20964;-79
2022/11/11 03:31:51;;;;;;;3.97;3.38;;;13.40;92.10;;;;;;5063558;28;20036;-79
2022/11/11 03:34:17;;;;;;;5.32;3.88;;;13.30;92.20;;;;;;5053992;28;20115;-78
2022/11/11 03:39:28;;;;;;;6.05;3.67;;;13.30;92.20;;;;;;5063887;28;20070;-78
2022/11/11 03:41:55;;;;;;;3.85;3.28;;;13.30;92.20;;;;;;5051983;28;20477;-79
2022/11/11 03:44:21;;;;;;;6.18;3.33;;;13.30;92.20;;;;;;5053933;28;20473;-79
2022/11/11 03:46:47;;;;;;;4.50;3.65;;;13.30;92.20;;;;;;5047820;28;20080;-78
2022/11/11 03:49:12;;;;;;;5.90;4.28;;;13.30;92.40;;;;;;5056269;28;20489;-79
2022/11/11 03:51:38;;;;;;;8.13;4.40;;;13.30;92.30;;;;;;5053980;28;20374;-79
2022/11/11 03:54:04;;;;;;;5.07;4.03;;;;;;;;;;5047213;28;20446;-79
2022/11/11 03:56:30;;;;;;;5.38;3.92;;;13.20;92.00;;;;;;5049566;28;20029;-80
2022/11/11 03:58:55;;;;;;;7.03;4.57;;;13.20;92.00;;;;;;5065365;28;20098;-81
2022/11/11 04:12:30;;;;;;;5.35;3.85;;;13.00;92.30;;;;;;5045997;28;20084;-85
2022/11/11 04:17:40;;;;;;;5.72;3.80;;;12.90;92.30;;;;;;5053610;28;20060;-85
2022/11/11 04:22:52;;;;;;;6.00;4.13;;;12.70;92.40;;;;;;5056951;28;20071;-83
2022/11/11 04:30:47;;;;;;;4.38;3.78;;;;;;;;;;5048519;28;20072;-83
2022/11/11 04:33:13;;;;;;;6.18;4.15;;;12.60;92.70;;;;;;5056596;28;20044;-84
2022/11/11 04:35:39;;;;;;;4.88;3.95;;;12.70;92.90;;;;;;5052340;28;20401;-84
2022/11/11 04:41:03;;;;;;;5.40;3.70;;;12.70;92.80;;;;;;5037123;28;20037;-83
2022/11/11 04:43:30;;;;;;;5.20;3.97;;;12.70;92.60;;;;;;5035646;28;20041;-84
2022/11/11 04:45:59;;;;;;;5.15;4.10;;;12.70;92.60;;;;;;5042099;28;20057;-84
2022/11/11 04:48:26;;;;;;;4.65;4.13;;;12.70;92.80;;;;;;5046266;28;20043;-84
2022/11/11 04:50:51;;;;;;;4.80;4.00;;;12.70;94.40;;;;;;5042409;28;20386;-83
2022/11/11 04:53:17;;;;;;;4.38;3.65;;;12.70;99.90;;;;;;5034840;28;20041;-83
2022/11/11 04:58:31;;;;;;;7.97;3.95;;;12.60;92.70;;;;;;5022303;28;20128;-83
2022/11/11 05:00:57;;;;;;;6.38;4.10;;;12.70;99.70;;;;;;5038767;28;20509;-83
2022/11/11 05:03:23;;;;;;;5.53;4.35;;;12.70;92.60;;;;;;5033533;28;20117;-83
2022/11/11 05:08:55;;;;;;;4.78;3.97;;;12.70;92.80;;;;;;5042185;28;20094;-83
2022/11/11 05:22:09;;;;;;;4.07;3.50;;;12.60;92.90;;;;;;5124708;28;20030;-83
2022/11/11 05:27:20;;;;;;;5.38;3.83;;;12.70;92.70;;;;;;5105575;28;20054;-84
2022/11/11 05:29:46;;;;;;;5.13;4.40;;;;;;;;;;5114409;28;20039;-83
2022/11/11 05:32:18;;;;;;;4.95;3.65;;;12.60;92.50;;;;;;5118799;28;20027;-83
2022/11/11 05:34:44;;;;;;;5.68;4.10;;;12.70;92.80;;;;;;5109288;28;20085;-83
2022/11/11 05:37:10;;;;;;;6.75;4.13;;;12.70;92.80;;;;;;5120607;28;20436;-83
2022/11/11 05:39:35;;;;;;;5.47;3.75;;;12.60;92.60;;;;;;5124308;27;20102;-84
2022/11/11 05:42:01;;;;;;;4.97;3.80;;;12.60;92.90;;;;;;5118516;28;20024;-83
2022/11/11 05:44:27;;;;;;;4.13;3.72;;;12.60;92.70;;;;;;5113919;28;20054;-84
2022/11/11 05:46:52;;;;;;;4.93;3.60;;;12.70;92.90;;;;;;5109359;28;20035;-82
2022/11/11 05:49:18;;;;;;;4.22;3.70;;;12.60;92.60;;;;;;5114532;28;20057;-82
2022/11/11 05:51:45;;;;;;;6.15;3.90;;;12.70;92.80;;;;;;5117522;28;20032;-83
2022/11/11 05:54:12;;;;;;;4.45;3.80;;;12.60;92.60;;;;;;5118860;28;20405;-82
2022/11/11 05:56:38;;;;;;;6.70;4.50;;;12.70;92.80;;;;;;5117601;27;20024;-84
2022/11/11 05:59:04;;;;;;;7.00;4.20;;;12.60;92.60;;;;;;5116910;28;20030;-83
2022/11/11 06:04:01;;;;;;;4.90;3.70;;;;;;;;;;5070656;28;20405;-85
2022/11/11 06:11:01;;;;;;;4.57;3.40;;;12.70;92.60;;;;;;5080090;28;20381;-83
2022/11/11 06:13:27;;;;;;;4.28;3.53;;;12.70;92.80;;;;;;5072784;28;20021;-83
2022/11/11 06:15:55;;;;;;;6.85;3.97;;;12.70;92.60;;;;;;5070177;28;20029;-82
2022/11/11 06:18:21;;;;;;;3.92;3.42;;;;;;;;;;5072622;28;20027;-84
2022/11/11 06:20:53;;;;;;;4.10;3.33;;;12.80;92.60;;;;;;5069452;28;20024;-86
2022/11/11 06:23:19;;;;;;;4.70;3.70;;;12.80;92.50;;;;;;5070225;28;20024;-85
2022/11/11 06:28:29;;;;;;;6.10;3.75;;;12.90;92.50;;;;;;5061774;28;20480;-82
2022/11/11 06:30:55;;;;;;;4.72;3.20;;;12.90;92.80;;;;;;5067933;28;20025;-81
2022/11/11 06:33:20;;;;;;;4.95;3.65;;;12.90;92.50;;;;;;5071468;28;20508;-81
2022/11/11 06:35:47;;;;;;;4.70;3.83;;;13.00;92.50;;;;;;5074722;28;20036;-85
2022/11/11 06:38:12;;;;;;;4.80;3.58;;;13.00;92.70;;;;;;5081963;28;20059;-85
2022/11/11 06:40:39;;;;;;;5.97;4.35;;;13.00;92.60;;;;;;5056767;28;20059;-85
2022/11/11 06:43:04;;;;;;;5.63;4.55;;;13.00;92.50;;;;;;5066101;28;20116;-84
2022/11/11 06:45:32;;;;;;;6.78;3.90;;;13.00;92.30;;;;;;5077476;28;20450;-84
2022/11/11 06:47:58;;;;;;;5.07;3.55;;;13.00;92.40;;;;;;5064374;28;20025;-87
2022/11/11 06:50:23;;;;;;;4.75;3.53;;;13.00;92.30;;;;;;5091393;28;20084;-86
2022/11/11 06:52:49;;;;;;;6.35;4.00;;;13.00;92.50;;;;;;5077076;28;20597;-87
2022/11/11 06:55:15;;;;;;;4.82;3.72;;;13.10;92.80;;;;;;5081525;28;20036;-86
2022/11/11 06:57:40;;;;;;;5.47;3.72;;;13.10;92.70;;;;;;5073524;28;20033;-86
2022/11/11 07:00:07;;;;;;;6.90;4.25;;;13.20;92.70;;;;;;5090941;28;20150;-86
2022/11/11 07:02:33;;;;;;;5.85;4.03;;;13.30;92.50;;;;;;5079860;28;20085;-85
2022/11/11 07:04:59;;;;;;;4.97;3.72;;;13.20;92.70;;;;;;5075875;28;20373;-84
2022/11/11 07:07:25;;;;;;;5.53;3.90;;;13.30;92.30;;;;;;5070714;28;20061;-85
2022/11/11 07:09:54;;;;;;;6.30;3.22;;;13.30;92.40;;;;;;5076302;28;20052;-85
2022/11/11 07:12:21;;;;;;;4.35;3.22;;;13.40;92.20;;;;;;5090008;28;20068;-85
2022/11/11 07:14:47;;;;;;;3.63;2.80;;;13.50;92.30;;;;;;5083653;28;20139;-88
2022/11/11 07:17:13;;;;;;;3.90;2.65;;;13.40;92.40;;;;;;5067049;28;20481;-83
2022/11/11 07:19:39;;;;;;;4.13;3.15;;;13.50;92.20;;;;;;5069709;28;20109;-84
2022/11/11 07:22:05;;;;;;;4.10;2.78;;;13.50;92.50;;;;;;5057149;28;20492;-82
2022/11/11 07:24:30;;;;;;;3.30;1.95;;;13.60;92.80;;;;;;5062399;28;20598;-83
2022/11/11 07:26:58;;;;;;;3.15;2.28;;;13.80;92.60;;;;;;5055614;28;20457;-82
2022/11/11 07:29:24;;;;;;;3.03;2.10;;;13.80;92.20;;;;;;5056086;28;20145;-80
2022/11/11 07:31:50;;;;;;;3.45;2.00;;;13.80;92.30;;;;;;5042726;28;20398;-82
2022/11/11 07:34:16;;;;;;;2.45;1.92;;;13.90;92.00;;;;;;5051831;28;20049;-82
2022/11/11 07:36:41;;;;;;;2.78;2.15;;;13.90;91.90;;;;;;5056024;28;20106;-81
2022/11/11 07:39:07;;;;;;;1.67;1.40;;;14.00;92.00;;;;;;5064572;28;20017;-82
2022/11/11 07:41:33;;;;;;;2.60;1.90;;;14.00;91.90;;;;;;5051842;28;20036;-82
2022/11/11 07:43:59;;;;;;;1.92;1.30;;;;;;;;;;5050917;28;20025;-82
2022/11/11 07:46:25;;;;;;;3.03;1.85;;;14.10;91.40;;;;;;5032532;28;22043;-82
2022/11/11 07:51:10;;;;;;;2.55;1.77;;;14.20;91.20;;;;;;5155196;27;20339;-81
2022/11/11 07:53:36;;;;;;;2.97;1.63;;;14.30;91.00;;;;;;5133975;27;20031;-82
2022/11/11 07:56:01;;;;;;;2.25;1.48;;;14.30;91.00;;;;;;5147043;27;20034;-82
2022/11/11 07:58:27;;;;;;;2.30;1.60;;;14.30;91.10;;;;;;5151625;27;20473;-82
2022/11/11 08:00:53;;;;;;;2.65;1.75;;;14.40;90.80;;;;;;5156633;27;20035;-82
2022/11/11 08:03:19;;;;;;;2.65;1.85;;;14.40;91.00;;;;;;5154448;27;20100;-82
2022/11/11 08:05:45;;;;;;;2.63;1.80;;;14.40;90.70;;;;;;5134449;27;20062;-82
2022/11/11 08:08:11;;;;;;;2.13;1.80;;;14.50;90.90;;;;;;5147944;27;20099;-83
2022/11/11 08:10:37;;;;;;;3.35;2.30;;;14.60;90.50;;;;;;5132305;27;20035;-82
2022/11/11 08:15:47;;;;;;;3.67;1.88;;;14.70;90.00;;;;;;5145968;27;20116;-82
2022/11/11 08:18:13;;;;;;;2.83;2.17;;;14.70;90.30;;;;;;5130372;27;20059;-83
2022/11/11 08:20:39;;;;;;;4.97;2.00;;;14.80;90.30;;;;;;5152149;27;20039;-82
2022/11/11 08:23:09;;;;;;;5.20;2.28;;;14.90;90.30;;;;;;5152089;27;20356;-82
2022/11/11 08:25:36;;;;;;;3.28;2.05;;;14.90;90.30;;;;;;5151547;27;20026;-84
2022/11/11 08:28:03;;;;;;;2.42;2.22;;;15.20;90.40;;;;;;5150065;27;20023;-82
2022/11/11 08:30:30;;;;;;;3.60;2.08;;;;;;;;;;5145034;27;20039;-82
2022/11/11 08:33:01;;;;;;;2.97;2.38;;;15.30;89.80;;;;;;5132151;27;20027;-82
2022/11/11 08:35:27;;;;;;;;;;;15.20;89.20;;;;;;5150524;27;20035;-83
2022/11/11 08:37:53;;;;;;;3.65;2.58;;;15.30;89.90;;;;;;5150589;27;19911;-82
2022/11/11 08:40:20;;;;;;;4.45;2.00;;;15.30;89.70;;;;;;5132714;27;20033;-82
2022/11/11 08:42:46;;;;;;;3.25;2.20;;;15.40;90.00;;;;;;5151723;27;20031;-82
2022/11/11 08:45:13;;;;;;;4.20;2.08;;;15.40;89.30;;;;;;5149678;27;20366;-84
2022/11/11 08:47:38;;;;;;;3.78;1.70;;;15.30;89.60;;;;;;5131762;27;20026;-80
2022/11/11 08:50:13;;;;;;;3.20;2.30;;;15.40;89.00;;;;;;5133951;27;20069;-81
2022/11/11 08:52:45;;;;;;;4.72;2.30;;;15.40;89.00;;;;;;5143067;27;20039;-83
2022/11/11 08:55:11;;;;;;;2.97;2.10;;;15.40;89.70;;;;;;5136947;27;20031;-82
2022/11/11 08:57:36;;;;;;;3.15;2.30;;;15.50;89.80;;;;;;5138816;27;20382;-81
2022/11/11 09:00:03;;;;;;;3.20;2.42;;;;;;;;;;5146911;27;20034;-83
2022/11/11 09:02:29;;;;;;;3.17;2.25;;;15.50;88.40;;;;;;5130261;27;20023;-82
2022/11/11 09:04:55;;;;;;;6.68;2.40;;;15.50;88.90;;;;;;5116658;27;20474;-83
2022/11/11 09:07:20;;;;;;;3.08;2.20;;;15.50;89.30;;;;;;5131582;27;20036;-83
2022/11/11 09:09:46;;;;;;;4.82;2.20;;;15.60;89.50;;;;;;5125449;27;20507;-83
2022/11/11 09:12:12;;;;;;;3.15;2.00;;;15.70;89.70;;;;;;5133322;27;20047;-83
2022/11/11 09:14:37;;;;;;;2.45;1.67;;;15.70;89.60;;;;;;5135300;27;20031;-82
2022/11/11 09:17:03;;;;;;;2.30;1.85;;;15.90;88.70;;;;;;5135868;27;20046;-82
2022/11/11 09:19:29;;;;;;;6.28;2.05;;;15.90;88.80;;;;;;5137103;27;20022;-83
2022/11/11 09:21:54;;;;;;;3.33;2.08;;;16.00;87.30;;;;;;5136154;27;20023;-85
2022/11/11 09:24:20;;;;;;;2.28;1.90;;;16.00;88.40;;;;;;5117730;27;20027;-83
2022/11/11 09:26:49;;;;;;;33.35;3.55;;;16.00;87.10;;;;;;5115285;27;20035;-83
2022/11/11 09:29:15;;;;;;;3.23;1.93;;;16.00;87.00;;;;;;5118594;27;20566;-86
2022/11/11 09:31:41;;;;;;;3.03;1.98;;;16.10;87.30;;;;;;5135794;27;20102;-83
2022/11/11 09:34:07;;;;;;;2.58;1.58;;;16.20;88.10;;;;;;5133107;27;20448;-83
2022/11/11 09:36:33;;;;;;;1.70;1.40;;;16.40;88.20;;;;;;5135829;27;20015;-81
2022/11/11 09:38:59;;;;;;;4.25;1.92;;;16.60;87.20;;;;;;5111435;27;20044;-82
2022/11/11 09:41:44;;;;;;;4.75;2.05;;;16.60;84.10;;;;;;5111737;27;21211;-83
2022/11/11 09:44:18;;;;;;;4.38;2.00;;;16.60;85.10;;;;;;5128071;27;20398;-83
2022/11/11 09:47:00;;;;;;;5.45;2.70;;;16.70;85.20;;;;;;5134632;27;20080;-84
2022/11/11 09:49:44;;;;;;;4.43;2.30;;;16.70;84.10;;;;;;5133431;27;20097;-84
2022/11/11 09:52:34;;;;;;;2.85;1.90;;;16.60;84.60;;;;;;5123854;27;20031;-83
2022/11/11 09:55:15;;;;;;;3.10;1.67;;;16.70;85.50;;;;;;5116302;27;20043;-77
2022/11/11 09:57:48;;;;;;;3.47;1.70;;;17.00;85.50;;;;;;5129296;27;20107;-78
2022/11/11 10:00:24;;;;;;;3.65;1.70;;;17.10;85.50;;;;;;5101789;27;20399;-78
2022/11/11 10:02:52;;;;;;;3.30;1.52;;;17.30;85.40;;;;;;5129087;27;20151;-77
2022/11/11 10:05:37;;;;;;;1.88;1.55;;;17.50;85.60;;;;;;5116207;27;20036;-77
2022/11/11 10:08:26;;;;;;;4.28;1.83;;;17.60;83.50;;;;;;5116515;27;20026;-78
2022/11/11 10:10:53;;;;;;;3.95;1.42;;;17.60;81.60;;;;;;5122808;27;20360;-83
2022/11/11 10:13:42;;;;;;;3.78;1.83;;;17.60;83.20;;;;;;5132264;27;20023;-84
2022/11/11 10:16:18;;;;;;;1.75;1.30;;;;;;;;;;5135323;27;20122;-85
2022/11/11 10:19:19;;;;;;;1.98;1.40;;;17.80;83.10;;;;;;5134451;27;20027;-84
2022/11/11 10:21:56;;;;;;;2.53;1.50;;;17.90;82.60;;;;;;5132235;27;20491;-82
2022/11/11 10:24:31;;;;;;;2.88;1.60;;;18.10;82.80;;;;;;5131845;27;20558;-84
2022/11/11 10:27:03;;;;;;;1.48;1.25;;;17.90;79.80;;;;;;5127502;27;20015;-78
2022/11/11 10:29:43;;;;;;;1.65;1.40;;;17.90;81.40;;;;;;5133211;27;20039;-79
2022/11/11 10:32:23;;;;;;;1.17;1.08;;;18.00;82.10;;;;;;5112494;27;20437;-77
2022/11/11 10:34:50;;;;;;;2.78;1.25;;;18.20;82.00;;;;;;5134425;27;20467;-85
2022/11/11 10:37:24;;;;;;;2.65;1.45;;;;;;;;;;5128861;27;20024;-84
2022/11/11 10:40:14;;;;;;;2.45;1.48;;;18.60;80.40;;;;;;5126222;27;20046;-83
2022/11/11 10:42:40;;;;;;;;;;;18.70;79.00;;;;;;5124227;27;20091;-83
2022/11/11 10:45:30;;;;;;;2.78;1.30;;;18.70;78.70;;;;;;5124199;27;19995;-77
2022/11/11 10:48:08;;;;;;;1.10;0.80;;;18.60;80.10;;;;;;5122275;27;20028;-79
2022/11/11 10:50:41;;;;;;;1.75;1.27;;;18.60;80.80;;;;;;5107126;27;20043;-79
2022/11/11 10:53:19;;;;;;;1.60;1.00;;;18.60;78.90;;;;;;5102904;28;20023;-78
2022/11/11 10:55:47;;;;;;;1.52;1.33;;;18.50;77.50;;;;;;5102952;28;20043;-78
2022/11/11 10:58:24;;;;;;;1.50;1.10;;;18.60;79.90;;;;;;5111346;28;20035;-77
2022/11/11 11:00:52;;;;;;;3.50;1.67;;;18.70;79.00;;;;;;5104415;28;20027;-77
2022/11/11 11:03:29;;;;;;;2.22;1.50;;;18.60;76.80;;;;;;5101277;28;20031;-77
2022/11/11 11:06:07;;;;;;;2.63;1.08;;;18.60;77.30;;;;;;5094762;28;20452;-78
2022/11/11 11:08:54;;;;;;;1.30;1.15;;;18.60;78.80;;;;;;5110085;28;20035;-79
2022/11/11 11:11:30;;;;;;;1.73;1.20;;;18.80;77.80;;;;;;5104342;28;20036;-78
2022/11/11 11:14:05;;;;;;;2.17;1.08;;;18.80;76.80;;;;;;5112314;28;20392;-78
2022/11/11 11:16:46;;;;;;;2.97;1.40;;;18.90;78.60;;;;;;5113809;28;20429;-79
2022/11/11 11:19:23;;;;;;;3.60;1.40;;;18.90;76.70;;;;;;5113632;28;20088;-79
2022/11/11 11:21:50;;;;;;;1.88;1.13;;;18.90;76.80;;;;;;5113093;28;20020;-78
2022/11/11 11:24:26;;;;;;;1.50;1.30;;;18.90;77.00;;;;;;5113205;28;20047;-78
2022/11/11 11:27:09;;;;;;;1.50;1.20;;;19.20;76.30;;;;;;5113371;28;20027;-78
2022/11/11 11:29:37;;;;;;;1.10;0.93;;;19.20;76.50;;;;;;5113281;28;20059;-78
2022/11/11 11:32:17;;;;;;;1.35;1.00;;;19.70;77.00;;;;;;5113651;28;20035;-78
2022/11/11 11:34:56;;;;;;;2.92;1.10;;;20.20;75.00;;;;;;5113789;28;20036;-79
2022/11/11 11:37:24;;;;;;;1.85;1.50;;;20.70;75.00;;;;;;5113338;28;20043;-78
2022/11/11 11:40:05;;;;;;;1.83;1.15;;;21.00;73.50;;;;;;5111642;28;20122;-78
2022/11/11 11:42:32;;;;;;;1.98;1.30;;;21.20;73.00;;;;;;5113330;28;20035;-79
2022/11/11 11:45:13;;;;;;;2.38;1.00;;;21.10;73.10;;;;;;5112521;28;20035;-79
2022/11/11 11:48:08;;;;;;;1.73;1.30;;;21.20;73.00;;;;;;5112770;28;20031;-80
2022/11/11 11:51:06;;;;;;;2.47;1.30;;;21.40;73.20;;;;;;5080390;28;20043;-78
2022/11/11 11:54:23;;;;;;;1.67;1.23;;;21.70;72.60;;;;;;5052348;28;20039;-78
2022/11/11 11:56:53;;;;;;;1.38;0.98;;;21.80;67.60;;;;;;5014466;28;20128;-79
2022/11/11 11:59:27;;;;;;;1.13;0.93;;;22.10;70.40;;;;;;5012057;28;20030;-79
2022/11/11 12:02:26;;;;;;;1.50;1.10;;;22.40;69.80;;;;;;5076732;28;20054;-78
2022/11/11 12:05:36;;;;;;;1.58;1.23;;;22.80;67.80;;;;;;5112688;28;20466;-79
2022/11/11 12:08:02;;;;;;;1.75;1.00;;;;;;;;;;5089787;28;20063;-79
2022/11/11 12:10:34;;;;;;;3.42;1.38;;;23.30;67.00;;;;;;5105977;28;20480;-78
2022/11/11 12:13:52;;;;;;;1.33;1.13;;;23.70;65.80;;;;;;5112841;28;20036;-78
2022/11/11 12:16:40;;;;;;;2.00;1.27;;;23.70;66.10;;;;;;5076284;28;20040;-77
2022/11/11 12:19:25;;;;;;;1.15;1.00;;;23.70;65.30;;;;;;5094681;28;20036;-79
2022/11/11 12:22:23;;;;;;;1.85;1.48;;;23.60;65.60;;;;;;5092885;28;20024;-77
2022/11/11 12:25:02;;;;;;;2.58;1.45;;;23.80;65.30;;;;;;5108000;28;20032;-79
2022/11/11 12:27:37;;;;;;;3.40;1.50;;;23.80;65.50;;;;;;5112623;28;20472;-80
2022/11/11 12:30:14;;;;;;;5.20;1.48;;;23.90;65.40;;;;;;5113724;28;20165;-79
2022/11/11 12:32:48;;;;;;;1.23;1.13;;;24.10;65.00;;;;;;5097151;28;20551;-80
2022/11/11 12:35:17;;;;;;;2.72;1.58;;;24.00;63.50;;;;;;5101102;28;20054;-80
2022/11/11 12:37:56;;;;;;;1.63;1.40;;;24.00;64.00;;;;;;5113806;28;20023;-80
2022/11/11 12:40:22;;;;;;;2.47;1.65;;;23.90;64.00;;;;;;5115986;28;20039;-80
2022/11/11 12:43:00;;;;;;;2.03;1.33;;;24.10;64.20;;;;;;5114149;28;20734;-79
2022/11/11 12:45:46;;;;;;;3.00;1.17;;;24.60;61.30;;;;;;5116605;28;20138;-80
2022/11/11 12:48:49;;;;;;;2.17;1.20;;;24.70;62.20;;;;;;5115263;28;20548;-80
2022/11/11 12:51:52;;;;;;;1.55;1.30;;;25.00;61.30;;;;;;5089773;28;20102;-80
2022/11/11 12:54:40;;;;;;;;;;;25.20;60.90;;;;;;5095187;28;20392;-83
2022/11/11 12:57:12;;;;;;;2.25;0.80;;;25.00;58.30;;;;;;5093197;28;19912;-81
2022/11/11 13:00:28;;;;;;;1.23;1.10;;;24.90;57.90;;;;;;5084752;28;20032;-80
2022/11/11 13:03:12;;;;;;;1.80;0.95;;;24.80;59.80;;;;;;5050710;28;20124;-80
2022/11/11 13:06:19;;;;;;;0.90;0.88;;;23.90;59.90;;;;;;5049129;28;20037;-81
2022/11/11 13:08:48;;;;;;;0.80;0.75;;;;;;;;;;5096417;28;20038;-83
2022/11/11 13:11:31;;;;;;;1.00;0.90;;;23.00;61.60;;;;;;5082066;28;20361;-82
2022/11/11 13:14:25;;;;;;;1.33;1.17;;;23.10;62.50;;;;;;5083483;28;20098;-83
2022/11/11 13:16:55;;;;;;;1.55;1.00;;;22.70;63.10;;;;;;5087423;28;20103;-83
2022/11/11 13:19:40;;;;;;;1.80;1.25;;;22.50;63.50;;;;;;5091896;28;20084;-80
2022/11/11 13:22:06;;;;;;;1.67;1.20;;;22.20;63.90;;;;;;5083895;28;20024;-81
2022/11/11 13:24:34;;;;;;;1.92;1.05;;;21.80;64.60;;;;;;5081583;28;20039;-84
2022/11/11 13:27:17;;;;;;;1.70;1.13;;;21.70;65.00;;;;;;5076612;28;20064;-79
2022/11/11 13:30:04;;;;;;;2.08;1.35;;;21.50;66.00;;;;;;5079671;28;20036;-79
2022/11/11 13:32:46;;;;;;;1.55;1.20;;;21.50;66.70;;;;;;5075145;28;20028;-76
2022/11/11 13:35:26;;;;;;;2.30;1.52;;;21.40;66.60;;;;;;5087156;28;20040;-79
2022/11/11 13:37:51;;;;;;;1.70;1.00;;;21.30;66.80;;;;;;5093974;28;20035;-76
2022/11/11 13:40:36;;;;;;;1.33;1.23;;;21.30;67.30;;;;;;5095166;28;20032;-83
2022/11/11 13:43:03;;;;;;;1.77;1.00;;;21.20;67.30;;;;;;5095184;28;20034;-82
2022/11/11 13:45:39;;;;;;;2.05;1.02;;;21.10;67.40;;;;;;5094902;28;20499;-76
2022/11/11 13:48:15;;;;;;;1.73;1.25;;;20.90;67.50;;;;;;5096149;28;20073;-77
2022/11/11 13:50:41;;;;;;;1.60;1.30;;;20.80;67.80;;;;;;5131200;27;20047;-76
2022/11/11 13:53:25;;;;;;;2.13;1.20;;;20.70;68.20;;;;;;5138104;27;20015;-76
2022/11/11 13:55:57;;;;;;;2.03;1.15;;;20.60;68.60;;;;;;5121562;27;20053;-77
2022/11/11 13:58:30;;;;;;;1.75;0.90;;;20.40;68.80;;;;;;5137217;27;20039;-77
2022/11/11 14:01:02;;;;;;;2.33;1.27;;;20.40;69.30;;;;;;5135521;27;20019;-78
2022/11/11 14:03:34;;;;;;;1.65;1.08;;;20.40;69.70;;;;;;5137296;27;20045;-78
2022/11/11 14:06:15;;;;;;;11.43;1.92;;;20.30;70.10;;;;;;5138675;27;20030;-78
2022/11/11 14:08:46;;;;;;;3.78;1.25;;;20.30;70.50;;;;;;5138157;27;20019;-85
2022/11/11 14:11:24;;;;;;;1.85;1.25;;;20.20;70.80;;;;;;5141233;27;20034;-86
2022/11/11 14:13:55;;;;;;;1.25;1.10;;;20.20;71.00;;;;;;5134432;27;20031;-86
2022/11/11 14:16:35;;;;;;;1.27;1.10;;;20.10;71.00;;;;;;5105529;28;20027;-87
2022/11/11 14:19:19;;;;;;;1.33;1.10;;;20.00;71.10;;;;;;5121630;27;20811;-86
2022/11/11 14:21:47;;;;;;;1.63;1.23;;;19.90;71.50;;;;;;5114397;28;20112;-86
2022/11/11 14:24:38;;;;;;;2.08;0.98;;;19.90;72.20;;;;;;5115638;27;20020;-86
2022/11/11 14:27:16;;;;;;;1.67;1.20;;;19.90;72.10;;;;;;5105300;27;20552;-87
2022/11/11 14:29:53;;;;;;;2.03;1.42;;;20.00;72.60;;;;;;5133791;27;20035;-84
2022/11/11 14:32:49;;;;;;;2.30;1.38;;;19.90;72.50;;;;;;5120354;27;20032;-87
2022/11/11 14:35:27;;;;;;;1.48;1.25;;;19.80;72.90;;;;;;5117870;27;20028;-81
2022/11/11 14:38:03;;;;;;;1.80;1.08;;;19.70;72.30;;;;;;5140342;27;20067;-88
2022/11/11 14:40:31;;;;;;;1.63;1.08;;;19.70;73.10;;;;;;5139230;27;20024;-83
2022/11/11 14:42:58;;;;;;;1.50;1.13;;;19.60;73.80;;;;;;5132624;27;20031;-82
2022/11/11 14:45:30;;;;;;;3.80;0.93;;;19.50;73.50;;;;;;5133763;27;20359;-83
2022/11/11 14:47:56;;;;;;;1.50;1.20;;;19.50;73.10;;;;;;5133300;27;20128;-82
2022/11/11 14:50:30;;;;;;;0.70;0.70;;;19.40;73.50;;;;;;5135144;27;20062;-82